Terminal Aerodrome Forecast
Issued by NWS Sioux Falls, SD

Home | Current Version | Previous Version | Graphics & Text | Print | Product List | Glossary On
Versions: 1 2 3 4 5 6 7 8 9 10 11 12 13 14 15 16
000
FTUS43 KFSD 201125
TAFFSD
TAF
KFSD 201125Z 2012/2112 28007KT P6SM SCT030
     FM201600 27005KT P6SM BKN035
     FM210000 17005KT P6SM SCT035
     FM210600 18011KT P6SM SCT030 BKN150=

USA.gov is the U.S. government's official web portal to all federal, state and local government web resources and services.